Time;durP1;ratioP1;P1;durP2;ratioP2;P2;SDS_P1;SDS_P2;PMS_P1;PMS_P2;Temp;Humidity;BMP_temperature;BMP_pressure;BME280_temperature;BME280_humidity;BME280_pressure;Samples;Min_cycle;Max_cycle;Signal;HPM_P1;HPM_P2
2021/06/13 00:00:50;;;;;;;33.10;25.00;;;;;;;17.10;70.61;98889.38;5092045;28;20036;-62
2021/06/13 00:03:15;;;;;;;32.13;24.65;;;;;;;16.69;70.74;98815.03;5092213;28;20035;-58
2021/06/13 00:05:41;;;;;;;37.50;25.30;;;;;;;17.05;71.04;98888.09;5092688;28;20032;-60
2021/06/13 00:08:06;;;;;;;32.35;24.63;;;;;;;16.93;71.04;98873.34;5091674;28;20036;-60
2021/06/13 00:10:33;;;;;;;35.25;26.77;;;;;;;16.98;71.46;98873.66;5090623;28;20055;-61
2021/06/13 00:12:58;;;;;;;37.03;27.15;;;;;;;16.98;71.38;98881.75;5092310;28;20043;-60
2021/06/13 00:15:25;;;;;;;37.25;26.45;;;;;;;16.96;71.64;98886.50;5091802;28;20169;-61
2021/06/13 00:17:52;;;;;;;34.17;25.50;;;;;;;16.93;71.57;98879.59;5091559;28;20024;-59
2021/06/13 00:20:25;;;;;;;34.95;25.50;;;;;;;16.94;72.01;98893.97;5092393;28;20067;-60
2021/06/13 00:22:51;;;;;;;35.85;25.80;;;;;;;16.90;71.75;98889.97;5092174;28;20038;-60
2021/06/13 00:25:18;;;;;;;37.70;25.63;;;;;;;16.87;71.80;98879.50;5091297;28;20119;-58
2021/06/13 00:27:43;;;;;;;34.67;25.65;;;;;;;16.71;71.71;98862.47;5090932;28;20043;-60
2021/06/13 00:30:11;;;;;;;37.17;25.70;;;;;;;16.82;72.03;98877.38;5089054;28;20039;-59
2021/06/13 00:32:39;;;;;;;36.33;26.27;;;;;;;16.82;72.17;98890.91;5090031;28;20088;-59
2021/06/13 00:35:05;;;;;;;33.63;24.85;;;;;;;16.85;72.12;98890.50;5091781;28;20043;-61
2021/06/13 00:37:31;;;;;;;36.85;25.77;;;;;;;16.82;71.91;98871.13;5091916;28;20032;-61
2021/06/13 00:39:57;;;;;;;33.92;25.20;;;;;;;16.96;71.81;98881.09;5091978;28;20048;-60
2021/06/13 00:42:23;;;;;;;36.90;24.90;;;;;;;17.07;71.31;98875.22;5091087;28;20028;-60
2021/06/13 00:44:48;;;;;;;33.70;24.58;;;;;;;17.22;71.17;98879.75;5091316;28;20032;-59
2021/06/13 00:47:14;;;;;;;31.05;24.58;;;;;;;17.29;70.75;98877.97;5091868;28;20064;-61
2021/06/13 00:49:39;;;;;;;32.28;23.67;;;;;;;17.36;70.70;98878.88;5091949;28;20060;-61
2021/06/13 00:52:05;;;;;;;35.60;25.02;;;;;;;17.43;70.56;98880.81;5091345;28;20039;-61
2021/06/13 00:54:30;;;;;;;28.00;24.00;;;;;;;17.50;70.53;98889.84;5090740;28;20487;-60
2021/06/13 00:56:56;;;;;;;32.67;23.63;;;;;;;17.54;70.06;98874.88;5091215;28;20024;-60
2021/06/13 00:59:22;;;;;;;32.10;24.35;;;;;;;17.59;70.22;98879.72;5091695;28;20042;-60
2021/06/13 01:01:47;;;;;;;32.88;23.48;;;;;;;17.57;70.23;98879.09;5091656;28;20089;-61
2021/06/13 01:04:13;;;;;;;34.13;24.63;;;;;;;17.65;69.95;98887.94;5091151;28;20039;-60
2021/06/13 01:07:02;;;;;;;34.20;24.33;;;;;;;17.76;70.34;98893.84;5091273;28;20050;-61
2021/06/13 01:09:31;;;;;;;32.72;23.38;;;;;;;17.74;69.96;98901.31;5091176;28;20028;-61
2021/06/13 01:12:10;;;;;;;32.03;23.00;;;;;;;17.79;70.12;98890.75;5090768;28;20100;-59
2021/06/13 01:14:40;;;;;;;33.00;23.67;;;;;;;17.74;69.86;98887.78;5090779;28;20143;-61
2021/06/13 01:17:15;;;;;;;34.08;23.45;;;;;;;17.78;70.30;98889.91;5091120;28;20492;-61
2021/06/13 01:20:08;;;;;;;31.63;23.40;;;;;;;17.82;70.43;98887.63;5091275;28;20502;-59
2021/06/13 01:22:34;;;;;;;29.23;22.55;;;;;;;17.76;69.81;98885.72;5090681;28;20491;-60
2021/06/13 01:25:07;;;;;;;30.30;23.45;;;;;;;17.78;70.32;98892.63;5090718;28;20038;-61
2021/06/13 01:28:02;;;;;;;29.08;22.08;;;;;;;17.25;69.99;98800.94;5091004;28;20054;-60
2021/06/13 01:30:30;;;;;;;29.15;23.13;;;;;;;17.78;69.87;98891.78;5089728;28;20394;-61
2021/06/13 01:32:59;;;;;;;31.65;22.63;;;;;;;17.74;69.68;98880.50;5090615;28;20032;-61
2021/06/13 01:35:26;;;;;;;30.75;22.58;;;;;;;17.86;69.62;98888.94;5090126;28;20177;-63
2021/06/13 01:37:54;;;;;;;31.45;22.52;;;;;;;17.90;69.51;98895.66;5090130;28;20096;-60
2021/06/13 01:40:27;;;;;;;30.83;22.50;;;;;;;17.93;69.80;98889.84;5090673;28;20128;-60
2021/06/13 01:42:54;;;;;;;30.20;22.08;;;;;;;17.90;69.50;98890.25;5090004;28;20438;-59
2021/06/13 01:45:25;;;;;;;29.50;22.52;;;;;;;17.92;69.40;98881.91;5090474;28;20432;-60
2021/06/13 01:47:52;;;;;;;29.63;22.50;;;;;;;17.97;69.23;98889.44;5090786;28;20119;-61
2021/06/13 01:50:22;;;;;;;29.10;22.23;;;;;;;18.09;69.27;98896.06;5089973;28;20170;-60
2021/06/13 01:52:49;;;;;;;31.10;22.33;;;;;;;18.16;68.93;98887.97;5090461;28;20027;-60
2021/06/13 01:55:18;;;;;;;31.23;23.17;;;;;;;18.22;68.81;98887.19;5090347;28;20036;-61
2021/06/13 01:57:46;;;;;;;25.40;21.92;;;;;;;18.28;68.54;98885.53;5089928;28;20074;-60
2021/06/13 02:00:13;;;;;;;28.15;22.98;;;;;;;18.35;68.46;98887.28;5090281;28;20513;-60
2021/06/13 02:02:41;;;;;;;32.65;23.27;;;;;;;18.41;68.36;98885.66;5090080;28;20032;-61
2021/06/13 02:05:07;;;;;;;32.42;22.55;;;;;;;18.45;67.96;98886.09;5090032;28;20131;-59
2021/06/13 02:07:37;;;;;;;29.02;23.42;;;;;;;18.56;67.80;98887.41;5090276;28;20024;-60
2021/06/13 02:10:06;;;;;;;30.55;22.33;;;;;;;18.59;67.77;98884.31;5090020;28;20454;-58
2021/06/13 02:12:37;;;;;;;28.35;22.17;;;;;;;18.58;67.69;98874.50;5089757;28;20119;-59
2021/06/13 02:15:04;;;;;;;25.98;21.30;;;;;;;18.71;67.25;98881.88;5090133;28;20480;-60
2021/06/13 02:17:34;;;;;;;29.27;22.55;;;;;;;18.76;67.14;98882.94;5090686;28;20035;-60
2021/06/13 02:20:00;;;;;;;28.27;21.42;;;;;;;18.77;67.00;98875.66;5089999;28;20036;-60
2021/06/13 02:22:26;;;;;;;28.65;22.52;;;;;;;18.85;66.70;98869.22;5089493;28;20420;-60
2021/06/13 02:24:52;;;;;;;26.02;21.33;;;;;;;18.94;66.35;98874.28;5090346;28;20123;-60
2021/06/13 02:27:23;;;;;;;27.33;21.92;;;;;;;19.06;65.69;98871.84;5090240;28;20512;-59
2021/06/13 02:29:48;;;;;;;28.92;22.98;;;;;;;19.15;65.73;98860.81;5089913;28;20039;-60
2021/06/13 02:32:15;;;;;;;32.25;22.95;;;;;;;19.16;65.50;98846.19;5089420;28;20040;-60
2021/06/13 02:34:45;;;;;;;25.65;21.35;;;;;;;19.41;65.49;98851.91;5090530;28;20042;-60
2021/06/13 02:37:12;;;;;;;28.40;21.63;;;;;;;19.58;64.87;98860.50;5088615;28;20051;-60
2021/06/13 02:39:37;;;;;;;26.90;21.75;;;;;;;19.76;64.54;98856.31;5089289;28;20036;-60
2021/06/13 02:42:03;;;;;;;25.48;20.55;;;;;;;19.90;63.81;98849.03;5089783;28;20035;-60
2021/06/13 02:44:29;;;;;;;28.52;22.10;;;;;;;20.10;63.28;98854.50;5090377;28;20039;-61
2021/06/13 02:46:54;;;;;;;30.20;23.30;;;;;;;20.30;62.47;98853.63;5090557;28;20479;-60
2021/06/13 02:49:20;;;;;;;26.77;23.00;;;;;;;20.50;61.90;98861.75;5095356;28;20032;-61
2021/06/13 02:52:16;;;;;;;28.73;23.27;;;;;;;20.81;61.26;98862.94;5111651;28;20513;-60
2021/06/13 02:54:44;;;;;;;32.00;22.13;;;;;;;20.90;60.38;98868.97;5111123;28;20400;-60
2021/06/13 02:57:31;;;;;;;40.17;23.48;;;;;;;21.07;59.98;98862.00;5111702;28;20517;-60
2021/06/13 03:00:02;;;;;;;29.35;22.50;;;;;;;21.02;59.62;98861.81;5111565;28;20126;-60
2021/06/13 03:02:30;;;;;;;27.92;22.88;;;;;;;20.83;59.75;98860.00;5112094;28;20070;-60
2021/06/13 03:05:00;;;;;;;31.73;24.75;;;;;;;20.84;60.20;98867.13;5112327;28;20355;-58
2021/06/13 03:07:26;;;;;;;39.08;25.45;;;;;;;20.64;60.66;98859.81;5112062;27;20034;-57
2021/06/13 03:09:52;;;;;;;35.55;24.13;;;;;;;20.22;60.52;98792.19;5113432;28;20058;-60
2021/06/13 03:12:19;;;;;;;29.10;22.85;;;;;;;20.75;60.37;98875.50;5113924;28;20036;-60
2021/06/13 03:14:46;;;;;;;29.55;21.83;;;;;;;21.02;59.88;98875.44;5114025;28;20096;-60
2021/06/13 03:17:14;;;;;;;31.55;22.98;;;;;;;21.25;58.78;98879.50;5113741;28;20086;-60
2021/06/13 03:19:42;;;;;;;29.67;21.52;;;;;;;21.70;57.60;98867.75;5113399;28;20402;-60
2021/06/13 03:22:08;;;;;;;25.02;20.90;;;;;;;22.43;55.76;98865.47;5113848;28;20034;-61
2021/06/13 03:24:38;;;;;;;28.45;21.00;;;;;;;23.22;53.13;98867.47;5113459;28;20055;-61
2021/06/13 03:27:06;;;;;;;30.42;21.65;;;;;;;24.16;50.92;98865.31;5113519;28;20059;-60
2021/06/13 03:29:33;;;;;;;25.05;20.73;;;;;;;24.97;48.71;98868.47;5113284;28;20088;-61
2021/06/13 03:32:01;;;;;;;29.52;21.20;;;;;;;25.71;46.92;98866.84;5112980;28;20035;-59
2021/06/13 03:34:26;;;;;;;32.50;20.08;;;;;;;26.29;45.23;98867.56;5112587;28;20096;-60
2021/06/13 03:36:53;;;;;;;22.67;19.08;;;;;;;26.91;43.84;98870.34;5113394;28;20032;-61
2021/06/13 03:39:21;;;;;;;28.15;20.15;;;;;;;27.65;41.47;98869.00;5113242;28;20038;-59
2021/06/13 03:41:47;;;;;;;19.42;17.23;;;;;;;28.41;40.17;98860.81;5113479;28;20088;-60
2021/06/13 03:44:13;;;;;;;17.58;15.68;;;;;;;28.82;37.99;98791.41;5113108;28;20126;-60
2021/06/13 03:46:40;;;;;;;21.80;16.30;;;;;;;29.84;36.52;98857.22;5113028;28;20043;-63
2021/06/13 03:49:07;;;;;;;16.33;14.32;;;;;;;30.65;34.72;98851.91;5113556;28;20134;-60
2021/06/13 03:51:32;;;;;;;15.75;14.13;;;;;;;31.23;33.33;98847.81;5111405;28;20036;-60
2021/06/13 03:53:59;;;;;;;18.42;14.80;;;;;;;31.62;32.37;98860.84;5111737;28;20042;-62
2021/06/13 03:56:34;;;;;;;21.55;14.55;;;;;;;31.91;31.00;98862.84;5113409;28;20118;-61
2021/06/13 03:59:01;;;;;;;16.13;14.52;;;;;;;31.95;31.69;98857.53;5112042;28;20495;-59
2021/06/13 04:01:27;;;;;;;14.30;12.75;;;;;;;31.97;31.79;98863.66;5112829;28;20023;-60
2021/06/13 04:03:54;;;;;;;15.45;13.73;;;;;;;32.19;31.32;98871.47;5113169;28;20088;-60
2021/06/13 04:06:24;;;;;;;15.85;14.20;;;;;;;32.66;29.37;98868.25;5112846;28;20119;-61
2021/06/13 04:08:51;;;;;;;15.32;13.77;;;;;;;33.19;29.42;98869.28;5112416;28;20135;-61
2021/06/13 04:11:19;;;;;;;14.25;12.95;;;;;;;33.75;28.23;98862.13;5112539;28;20069;-59
2021/06/13 04:13:47;;;;;;;16.95;13.13;;;;;;;34.22;27.52;98869.69;5112516;28;20573;-61
2021/06/13 04:16:14;;;;;;;16.00;13.88;;;;;;;34.76;26.34;98867.31;5112150;27;20028;-61
2021/06/13 04:18:41;;;;;;;14.90;12.93;;;;;;;35.26;26.03;98862.97;5112445;28;20031;-60
2021/06/13 04:21:09;;;;;;;13.35;12.15;;;;;;;35.96;24.92;98873.84;5111796;28;20114;-60
2021/06/13 04:23:35;;;;;;;14.88;13.18;;;;;;;36.54;24.10;98870.47;5112037;28;20126;-60
2021/06/13 04:26:01;;;;;;;13.38;12.07;;;;;;;37.09;23.73;98862.78;5111962;28;20092;-60
2021/06/13 04:28:29;;;;;;;12.73;11.43;;;;;;;37.66;22.64;98864.66;5106556;28;20032;-60
2021/06/13 04:31:03;;;;;;;14.07;11.60;;;;;;;38.50;21.77;98874.75;5112896;28;20035;-62
2021/06/13 04:33:30;;;;;;;13.68;12.02;;;;;;;38.81;20.84;98869.97;5112210;27;20392;-61
2021/06/13 04:35:57;;;;;;;11.77;10.57;;;;;;;39.14;20.37;98869.31;5112221;28;20495;-61
2021/06/13 04:38:22;;;;;;;11.43;10.32;;;;;;;39.42;19.84;98863.22;5112340;28;20074;-60
2021/06/13 04:41:02;;;;;;;11.00;9.90;;;;;;;39.56;19.92;98868.53;5112218;28;20495;-60
2021/06/13 04:43:27;;;;;;;10.60;9.75;;;;;;;39.98;19.21;98864.88;5112101;28;20121;-61
2021/06/13 04:45:53;;;;;;;10.02;9.02;;;;;;;40.47;19.02;98859.41;5111980;28;20644;-61
2021/06/13 04:48:19;;;;;;;10.75;9.30;;;;;;;40.86;18.17;98861.09;5112159;28;20050;-59
2021/06/13 04:50:46;;;;;;;9.43;8.55;;;;;;;41.00;18.01;98858.75;5112152;28;20040;-62
2021/06/13 04:53:31;;;;;;;10.20;8.60;;;;;;;41.76;16.95;98857.41;5111498;28;20088;-61
2021/06/13 04:56:03;;;;;;;9.13;8.32;;;;;;;41.92;16.66;98854.63;5111664;28;20116;-62
2021/06/13 04:58:29;;;;;;;8.93;7.82;;;;;;;42.38;16.21;98854.25;5110689;28;20028;-61
2021/06/13 05:00:54;;;;;;;8.73;7.85;;;;;;;42.87;15.59;98850.28;5110834;28;20035;-62
2021/06/13 05:03:20;;;;;;;8.10;7.50;;;;;;;43.18;15.23;98854.19;5111017;28;20038;-62
2021/06/13 05:05:45;;;;;;;8.48;7.72;;;;;;;43.34;15.10;98852.53;5111183;28;20387;-61
2021/06/13 05:08:11;;;;;;;8.95;7.70;;;;;;;43.81;14.55;98847.88;5111953;27;20047;-61
2021/06/13 05:10:37;;;;;;;8.13;7.30;;;;;;;44.25;14.14;98852.34;5110883;28;20139;-61
2021/06/13 05:13:16;;;;;;;9.68;8.60;;;;;;;44.85;13.69;98860.19;5111414;28;20150;-59
2021/06/13 05:15:42;;;;;;;8.27;7.57;;;;;;;45.25;13.54;98852.31;5111340;28;20398;-64
2021/06/13 05:18:08;;;;;;;8.25;7.18;;;;;;;45.71;13.13;98864.59;5111586;28;20040;-62
2021/06/13 05:20:34;;;;;;;7.57;7.00;;;;;;;46.18;13.11;98858.69;5111200;28;20408;-59
2021/06/13 05:23:02;;;;;;;6.28;5.78;;;;;;;46.88;11.65;98856.03;5111369;28;20392;-62
2021/06/13 05:25:32;;;;;;;6.45;5.82;;;;;;;47.31;11.35;98860.38;5110879;28;20031;-62
2021/06/13 05:27:58;;;;;;;5.40;4.93;;;;;;;47.41;11.33;98854.75;5110849;28;20119;-61
2021/06/13 05:30:25;;;;;;;8.07;5.35;;;;;;;47.24;11.05;98861.91;5111198;28;20035;-62
2021/06/13 05:32:51;;;;;;;5.43;5.00;;;;;;;47.40;10.73;98852.31;5110742;28;20110;-61
2021/06/13 05:35:16;;;;;;;5.25;4.75;;;;;;;47.64;10.95;98855.66;5109525;28;20122;-61
2021/06/13 05:37:42;;;;;;;5.90;4.30;;;;;;;47.82;10.50;98848.03;5111219;28;20035;-60
2021/06/13 05:40:11;;;;;;;4.22;3.88;;;;;;;47.84;9.97;98867.47;5110657;28;20035;-60
2021/06/13 05:42:36;;;;;;;4.13;3.70;;;;;;;45.81;11.40;98852.63;5110816;28;20110;-61
2021/06/13 05:45:04;;;;;;;4.63;4.28;;;;;;;44.07;12.66;98863.28;5111485;28;20123;-61
2021/06/13 05:47:30;;;;;;;4.10;3.80;;;;;;;44.67;12.45;98857.09;5111108;28;20457;-62
2021/06/13 05:49:55;;;;;;;8.57;4.55;;;;;;;45.67;11.69;98827.00;5110642;28;20043;-60
2021/06/13 05:52:21;;;;;;;5.53;4.65;;;;;;;46.00;11.60;98847.97;5110948;28;20063;-61
2021/06/13 05:54:46;;;;;;;4.72;4.32;;;;;;;43.81;13.04;98792.31;5111158;28;20062;-60
2021/06/13 05:57:12;;;;;;;5.35;4.85;;;;;;;41.50;15.09;98829.72;5110591;28;20381;-62
2021/06/13 05:59:37;;;;;;;5.45;4.65;;;;;;;38.59;17.63;98800.00;5111317;28;20121;-66
2021/06/13 06:02:03;;;;;;;4.85;4.45;;;;;;;36.62;20.13;98858.50;5110852;28;20402;-63
2021/06/13 06:04:28;;;;;;;6.57;4.03;;;;;;;34.91;22.15;98840.31;5110795;28;20081;-62
2021/06/13 06:06:54;;;;;;;4.95;4.00;;;;;;;34.18;22.67;98830.59;5111309;28;20059;-62
2021/06/13 06:09:19;;;;;;;3.38;3.10;;;;;;;33.32;23.76;98849.16;5110872;28;20122;-61
2021/06/13 06:11:45;;;;;;;5.68;3.22;;;;;;;32.20;25.03;98850.97;5110368;28;20059;-62
2021/06/13 06:14:10;;;;;;;3.42;3.13;;;;;;;31.06;26.32;98826.84;5110872;28;20453;-62
2021/06/13 06:16:36;;;;;;;3.72;3.28;;;;;;;30.41;27.04;98846.97;5111246;28;20051;-62
2021/06/13 06:19:02;;;;;;;3.65;3.33;;;;;;;29.78;28.38;98851.69;5110776;28;20031;-62
2021/06/13 06:21:28;;;;;;;3.63;3.10;;;;;;;29.13;29.00;98831.97;5110405;28;20061;-63
2021/06/13 06:23:53;;;;;;;3.28;3.03;;;;;;;29.61;28.41;98862.97;5110769;28;20150;-62
2021/06/13 06:26:20;;;;;;;3.42;3.13;;;;;;;30.48;27.58;98864.06;5110816;28;20039;-61
2021/06/13 06:28:45;;;;;;;4.25;3.60;;;;;;;30.53;27.60;98856.88;5110018;28;20028;-61
2021/06/13 06:31:11;;;;;;;4.55;3.60;;;;;;;29.98;28.27;98863.81;5110067;28;20043;-61
2021/06/13 06:33:37;;;;;;;4.10;3.70;;;;;;;29.40;29.49;98858.47;5111172;28;20042;-62
2021/06/13 06:36:04;;;;;;;3.95;3.65;;;;;;;28.79;30.16;98853.34;5110963;28;20036;-62
2021/06/13 06:38:30;;;;;;;5.68;3.35;;;;;;;28.46;31.03;98863.63;5110347;28;20046;-61
2021/06/13 06:40:58;;;;;;;4.35;3.30;;;;;;;28.14;31.69;98860.88;5109874;28;20046;-63
2021/06/13 06:43:23;;;;;;;6.32;4.30;;;;;;;28.56;31.38;98837.22;5110538;28;20031;-64
2021/06/13 06:45:49;;;;;;;3.97;3.20;;;;;;;32.20;27.06;98848.19;5110735;28;20040;-63
2021/06/13 06:48:14;;;;;;;4.97;3.42;;;;;;;36.72;20.63;98849.88;5110408;28;20091;-61
2021/06/13 06:50:40;;;;;;;4.43;3.33;;;;;;;40.54;16.73;98841.19;5110274;28;20441;-61
2021/06/13 06:53:05;;;;;;;5.78;3.40;;;;;;;43.25;14.24;98872.41;5110477;28;20054;-64
2021/06/13 06:55:31;;;;;;;3.85;3.38;;;;;;;44.92;12.91;98867.13;5110461;28;20036;-60
2021/06/13 06:57:56;;;;;;;3.97;3.28;;;;;;;43.26;13.95;98863.63;5109908;28;20032;-60
2021/06/13 07:00:22;;;;;;;4.40;3.83;;;;;;;42.72;14.18;98862.34;5109573;28;20024;-61
2021/06/13 07:02:47;;;;;;;5.30;3.50;;;;;;;44.37;12.77;98859.78;5110121;28;20164;-61
2021/06/13 07:05:13;;;;;;;3.63;3.17;;;;;;;46.19;11.24;98860.31;5109687;28;20032;-60
2021/06/13 07:07:39;;;;;;;4.20;3.85;;;;;;;47.45;10.08;98808.63;5110176;28;20020;-60
2021/06/13 07:10:06;;;;;;;4.05;3.33;;;;;;;48.57;9.33;98792.56;5109645;28;20039;-61
2021/06/13 07:12:32;;;;;;;3.40;2.97;;;;;;;46.51;10.59;98837.16;5109774;28;20054;-61
2021/06/13 07:14:58;;;;;;;3.72;3.40;;;;;;;45.79;10.86;98857.06;5110034;28;20027;-60
2021/06/13 07:17:23;;;;;;;4.30;3.72;;;;;;;47.18;9.94;98857.84;5109728;28;20506;-64
2021/06/13 07:19:49;;;;;;;4.68;3.63;;;;;;;48.57;9.16;98843.66;5109777;28;20406;-66
2021/06/13 07:22:14;;;;;;;3.50;3.30;;;;;;;49.91;8.29;98850.19;5109680;28;20050;-61
2021/06/13 07:24:40;;;;;;;3.45;3.00;;;;;;;50.96;7.28;98852.19;5109816;28;20038;-62
2021/06/13 07:27:06;;;;;;;3.33;3.13;;;;;;;51.95;6.93;98864.03;5110285;28;20506;-62
2021/06/13 07:29:31;;;;;;;4.65;3.55;;;;;;;51.76;6.77;98851.28;5109324;28;20054;-61
2021/06/13 07:31:57;;;;;;;3.83;3.53;;;;;;;51.83;6.71;98814.84;5107959;28;20497;-61
2021/06/13 07:34:22;;;;;;;4.20;3.92;;;;;;;53.01;6.07;98848.78;5110369;28;20483;-61
2021/06/13 07:36:48;;;;;;;7.28;4.07;;;;;;;53.00;6.07;98852.91;5113254;28;20077;-60
2021/06/13 07:39:13;;;;;;;4.40;4.07;;;;;;;53.64;5.79;98849.97;5113348;28;20502;-62
2021/06/13 07:41:39;;;;;;;4.20;3.90;;;;;;;52.94;5.80;98824.84;5113579;28;20700;-63
2021/06/13 07:44:05;;;;;;;4.70;4.40;;;;;;;53.30;6.14;98854.75;5113795;28;20040;-63
2021/06/13 07:46:34;;;;;;;4.88;4.28;;;;;;;53.95;5.07;98872.59;5113938;28;20039;-62
2021/06/13 07:49:00;;;;;;;4.40;4.20;;;;;;;54.50;4.86;98857.78;5113770;28;20530;-64
2021/06/13 07:51:25;;;;;;;4.32;4.10;;;;;;;52.25;6.31;98859.50;5112982;28;20122;-62
2021/06/13 07:53:51;;;;;;;4.30;4.03;;;;;;;50.58;7.15;98841.53;5113205;28;20028;-59
2021/06/13 07:56:16;;;;;;;3.88;3.67;;;;;;;50.80;7.26;98845.03;5113054;28;20031;-61
2021/06/13 07:58:42;;;;;;;3.72;3.42;;;;;;;48.79;8.43;98845.72;5112844;28;20390;-61
2021/06/13 08:01:07;;;;;;;6.00;3.60;;;;;;;45.67;10.25;98821.34;5111947;28;20031;-61
2021/06/13 08:03:33;;;;;;;3.70;3.20;;;;;;;43.52;11.76;98839.63;5112852;28;20035;-60
2021/06/13 08:05:58;;;;;;;4.15;3.47;;;;;;;41.78;13.11;98854.22;5112398;28;20073;-61
2021/06/13 08:08:24;;;;;;;3.90;3.10;;;;;;;41.86;12.82;98834.41;5099916;28;20039;-60
2021/06/13 08:10:49;;;;;;;3.17;2.97;;;;;;;42.29;13.09;98857.22;5102350;28;20138;-62
2021/06/13 08:13:16;;;;;;;3.38;3.17;;;;;;;41.19;13.79;98834.84;5101121;28;20044;-61
2021/06/13 08:15:41;;;;;;;3.80;3.50;;;;;;;40.05;14.58;98856.75;5100100;28;20066;-60
2021/06/13 08:18:07;;;;;;;3.13;2.92;;;;;;;40.88;13.78;98839.94;5100006;28;20364;-60
2021/06/13 08:20:33;;;;;;;5.15;3.70;;;;;;;41.88;13.25;98853.72;5091916;28;20032;-61
2021/06/13 08:22:58;;;;;;;3.83;3.28;;;;;;;40.61;13.78;98838.63;5091989;28;20582;-60
2021/06/13 08:25:25;;;;;;;3.40;3.15;;;;;;;39.20;15.33;98851.16;5092138;28;20391;-60
2021/06/13 08:27:50;;;;;;;3.20;3.00;;;;;;;37.77;16.47;98853.97;5111878;28;20096;-60
2021/06/13 08:30:17;;;;;;;4.03;3.10;;;;;;;36.31;18.02;98851.81;5112300;28;20461;-60
2021/06/13 08:32:44;;;;;;;5.60;3.30;;;;;;;35.02;19.68;98841.78;5112286;27;20100;-61
2021/06/13 08:35:11;;;;;;;4.22;3.47;;;;;;;34.04;20.61;98865.84;5111725;28;20035;-60
2021/06/13 08:37:38;;;;;;;4.70;3.03;;;;;;;33.30;21.68;98868.03;5105551;28;20028;-59
2021/06/13 08:40:09;;;;;;;4.43;4.03;;;;;;;33.03;22.64;98865.91;5095889;28;20035;-60
2021/06/13 08:42:34;;;;;;;3.72;3.22;;;;;;;32.32;23.19;98808.22;5091204;28;20051;-61
2021/06/13 08:45:00;;;;;;;4.30;3.42;;;;;;;32.22;23.41;98850.69;5090862;28;20029;-61
2021/06/13 08:47:27;;;;;;;3.97;3.40;;;;;;;31.83;24.02;98855.19;5091057;28;20031;-61
2021/06/13 08:49:53;;;;;;;3.65;3.35;;;;;;;31.68;24.33;98864.38;5091768;28;20039;-62
2021/06/13 08:52:19;;;;;;;3.83;3.50;;;;;;;31.44;24.27;98865.09;5091428;28;20126;-60
2021/06/13 08:54:45;;;;;;;3.70;3.40;;;;;;;31.18;24.56;98861.63;5090426;28;20521;-60
2021/06/13 08:57:11;;;;;;;3.67;3.38;;;;;;;31.07;25.09;98871.91;5090996;28;20028;-59
2021/06/13 08:59:39;;;;;;;4.50;3.50;;;;;;;31.00;25.07;98858.38;5091432;28;20034;-61
2021/06/13 09:02:06;;;;;;;4.53;3.38;;;;;;;31.10;25.41;98860.28;5090973;28;20043;-62
2021/06/13 09:04:33;;;;;;;5.68;3.88;;;;;;;31.03;25.21;98852.28;5090312;28;20043;-63
2021/06/13 09:06:59;;;;;;;3.88;3.47;;;;;;;30.78;25.49;98851.28;5090420;28;20055;-65
2021/06/13 09:09:26;;;;;;;4.63;3.35;;;;;;;30.69;25.57;98858.53;5090946;28;20053;-63
2021/06/13 09:11:59;;;;;;;6.28;3.50;;;;;;;30.61;25.24;98859.91;5090566;28;20497;-61
2021/06/13 09:14:24;;;;;;;2.92;2.75;;;;;;;30.51;24.83;98866.25;5092981;28;20047;-64
2021/06/13 09:16:50;;;;;;;2.95;2.60;;;;;;;30.37;24.55;98854.13;5098942;28;20401;-61
2021/06/13 09:19:15;;;;;;;3.50;2.80;;;;;;;30.24;25.23;98850.03;5100226;28;20032;-61
2021/06/13 09:21:41;;;;;;;3.60;3.30;;;;;;;30.17;25.13;98847.56;5097514;28;20491;-63
2021/06/13 09:24:39;;;;;;;4.35;3.55;;;;;;;30.18;25.08;98856.66;5099304;28;20141;-65
2021/06/13 09:27:08;;;;;;;6.57;3.40;;;;;;;29.92;25.76;98860.25;5085570;28;20122;-61
2021/06/13 09:29:50;;;;;;;3.03;2.80;;;;;;;29.92;25.20;98857.50;5091060;28;20040;-64
2021/06/13 09:32:16;;;;;;;4.22;3.25;;;;;;;29.75;25.93;98845.91;5095349;28;20043;-65
2021/06/13 09:34:41;;;;;;;4.68;3.22;;;;;;;29.67;26.55;98832.66;5098417;28;20027;-60
2021/06/13 09:37:06;;;;;;;4.90;3.40;;;;;;;29.46;26.97;98829.88;5095024;28;20032;-60
2021/06/13 09:39:33;;;;;;;3.60;3.30;;;;;;;29.50;27.04;98837.31;5090222;28;20024;-62
2021/06/13 09:42:08;;;;;;;5.45;3.15;;;;;;;29.65;26.50;98844.75;5090623;28;20529;-62
2021/06/13 09:44:35;;;;;;;;;;;;;;;30.13;25.59;98843.69;5090902;28;20495;-66
2021/06/13 09:47:03;;;;;;;3.65;2.92;;;;;;;29.92;26.40;98846.44;5090675;28;19923;-64
2021/06/13 09:49:43;;;;;;;4.13;2.92;;;;;;;30.07;25.63;98855.84;5090547;28;20193;-65
2021/06/13 09:52:08;;;;;;;4.25;2.92;;;;;;;30.04;25.50;98823.28;5090115;28;20036;-62
2021/06/13 09:54:34;;;;;;;4.07;3.40;;;;;;;30.35;25.50;98840.63;5090117;28;20066;-63
2021/06/13 09:57:02;;;;;;;2.90;2.70;;;;;;;30.49;24.96;98843.63;5088142;28;20051;-60
2021/06/13 09:59:29;;;;;;;3.33;3.13;;;;;;;30.56;24.62;98846.09;5090024;28;20040;-61
2021/06/13 10:01:57;;;;;;;3.60;3.00;;;;;;;30.47;24.56;98836.72;5086659;28;20032;-63
2021/06/13 10:04:31;;;;;;;3.00;2.80;;;;;;;30.37;25.29;98832.03;5094702;28;20092;-62
2021/06/13 10:07:03;;;;;;;3.70;2.90;;;;;;;30.10;25.41;98844.25;5095948;28;20051;-65
2021/06/13 10:09:36;;;;;;;4.35;3.10;;;;;;;29.86;26.13;98832.94;5096630;28;20040;-60
2021/06/13 10:12:05;;;;;;;3.65;3.33;;;;;;;29.68;26.25;98831.56;5103109;28;20503;-61
2021/06/13 10:14:31;;;;;;;3.92;2.95;;;;;;;29.54;26.04;98834.84;5105835;28;20398;-62
2021/06/13 10:16:57;;;;;;;2.72;2.40;;;;;;;29.51;26.53;98821.59;5094837;28;20036;-60
2021/06/13 10:19:25;;;;;;;5.22;2.85;;;;;;;29.42;26.60;98817.72;5097599;28;20043;-61
2021/06/13 10:21:55;;;;;;;5.53;2.80;;;;;;;29.31;26.33;98836.97;5097569;28;20068;-59
2021/06/13 10:24:22;;;;;;;2.80;2.60;;;;;;;29.16;26.08;98815.72;5103732;28;20027;-61
2021/06/13 10:27:02;;;;;;;2.95;2.70;;;;;;;29.04;26.07;98832.50;5110680;28;20035;-59
2021/06/13 10:29:29;;;;;;;4.38;2.85;;;;;;;28.74;26.89;98831.25;5110014;28;20415;-61
2021/06/13 10:31:57;;;;;;;3.17;2.88;;;;;;;28.19;26.80;98781.97;5109787;28;20035;-61
2021/06/13 10:34:25;;;;;;;2.72;2.53;;;;;;;28.42;26.92;98829.44;5110055;28;20032;-61
2021/06/13 10:36:52;;;;;;;2.90;2.70;;;;;;;28.43;26.64;98813.75;5110226;28;20035;-62
2021/06/13 10:39:24;;;;;;;6.65;2.92;;;;;;;28.58;27.04;98818.50;5108750;28;20035;-60
2021/06/13 10:41:50;;;;;;;4.32;3.00;;;;;;;28.59;26.54;98821.00;5109555;28;20035;-57
2021/06/13 10:44:20;;;;;;;3.97;2.97;;;;;;;28.71;26.42;98836.47;5110264;28;20449;-60
2021/06/13 10:46:49;;;;;;;3.25;2.75;;;;;;;28.73;26.36;98823.25;5110692;28;20047;-60
2021/06/13 10:49:28;;;;;;;4.55;2.88;;;;;;;28.88;26.24;98833.53;5109737;28;20483;-61
2021/06/13 10:52:04;;;;;;;4.63;2.83;;;;;;;28.62;26.65;98827.88;5109692;28;20031;-60
2021/06/13 10:54:36;;;;;;;3.17;2.97;;;;;;;28.55;26.96;98828.13;5110357;28;20403;-60
2021/06/13 10:57:08;;;;;;;2.83;2.55;;;;;;;28.62;26.44;98820.47;5110499;28;20044;-61
2021/06/13 10:59:35;;;;;;;2.92;2.63;;;;;;;28.73;26.41;98823.25;5109625;28;20534;-61
2021/06/13 11:02:25;;;;;;;6.47;2.65;;;;;;;28.89;26.49;98821.41;5108169;28;20164;-61
2021/06/13 11:04:54;;;;;;;3.33;3.03;;;;;;;28.93;26.07;98837.16;5106313;28;20040;-59
2021/06/13 11:07:29;;;;;;;3.58;3.35;;;;;;;28.91;26.05;98824.72;5109817;28;20036;-59
2021/06/13 11:10:07;;;;;;;3.47;3.17;;;;;;;28.83;26.21;98836.28;5111199;28;20060;-60
2021/06/13 11:13:00;;;;;;;3.15;2.90;;;;;;;28.64;27.09;98833.94;5113423;28;20043;-61
2021/06/13 11:15:25;;;;;;;6.63;3.42;;;;;;;28.53;27.07;98824.00;5113331;28;20469;-61
2021/06/13 11:18:03;;;;;;;3.63;3.30;;;;;;;28.57;27.52;98836.94;5113284;28;20043;-60
2021/06/13 11:21:04;;;;;;;3.88;3.17;;;;;;;28.64;27.46;98823.78;5111946;28;20356;-61
2021/06/13 11:23:26;;;;;;;3.60;3.30;;;;;;;28.92;27.00;98834.66;5111475;28;20035;-60
2021/06/13 11:25:54;;;;;;;3.50;3.20;;;;;;;29.00;27.25;98839.66;5113169;28;20040;-61
2021/06/13 11:28:22;;;;;;;4.25;2.85;;;;;;;28.91;27.20;98830.25;5112901;28;20067;-55
2021/06/13 11:30:55;;;;;;;5.63;3.10;;;;;;;28.70;28.17;98845.81;5113812;28;20038;-62